RA3412 UUEE-UUML
Flight info
| Callsign | RA3412 |
|---|---|
| Flight time | 0h 49m |
| Altitude | 8000 |
| Route | DCT |
| Aircraft | DA42/L-SBDGRY/S |
Departure
| Time | 2026-04-30 12:12 |
|---|---|
| Airport | Sheremetyevo International Airport (UUEE) |
Arrival
| Time | 2026-04-30 13:01 |
|---|---|
| Airport | Severka Airfield (UUML) |
| Time | Latitude | Longitude | Altitude | Speed | Heading |
|---|---|---|---|---|---|
| 2026-04-30 12:06 | 55.96567 | 37.39861 | 633 ft | 0 kts | 56° |
| 2026-04-30 12:11 | 55.96606 | 37.39882 | 633 ft | 8 kts | 340° |
| 2026-04-30 12:11 | 55.96663 | 37.39861 | 636 ft | 10 kts | 19° |
| 2026-04-30 12:11 | 55.96647 | 37.39612 | 633 ft | 51 kts | 257° |
| 2026-04-30 12:11 | 55.96511 | 37.38714 | 721 ft | 87 kts | 257° |
| 2026-04-30 12:12 | 55.96303 | 37.37656 | 876 ft | 98 kts | 257° |
| 2026-04-30 12:12 | 55.95784 | 37.36809 | 1130 ft | 118 kts | 195° |
| 2026-04-30 12:12 | 55.94933 | 37.36941 | 1415 ft | 129 kts | 163° |
| 2026-04-30 12:12 | 55.94034 | 37.37700 | 1340 ft | 160 kts | 149° |
| 2026-04-30 12:13 | 55.93018 | 37.38654 | 1464 ft | 161 kts | 161° |
| 2026-04-30 12:13 | 55.91896 | 37.39135 | 1408 ft | 173 kts | 165° |
| 2026-04-30 12:13 | 55.90770 | 37.39545 | 1714 ft | 160 kts | 175° |
| 2026-04-30 12:13 | 55.89692 | 37.39604 | 2020 ft | 149 kts | 184° |
| 2026-04-30 12:14 | 55.88677 | 37.39562 | 2278 ft | 142 kts | 182° |
| 2026-04-30 12:14 | 55.87659 | 37.39648 | 2301 ft | 148 kts | 176° |
| 2026-04-30 12:14 | 55.86729 | 37.39710 | 2753 ft | 130 kts | 180° |
| 2026-04-30 12:14 | 55.85779 | 37.39697 | 2832 ft | 139 kts | 184° |
| 2026-04-30 12:15 | 55.84838 | 37.39635 | 2879 ft | 127 kts | 185° |
| 2026-04-30 12:15 | 55.84004 | 37.39545 | 2950 ft | 119 kts | 184° |
| 2026-04-30 12:15 | 55.83115 | 37.39452 | 3053 ft | 134 kts | 185° |
| 2026-04-30 12:15 | 55.82142 | 37.39346 | 3124 ft | 144 kts | 185° |
| 2026-04-30 12:16 | 55.81137 | 37.39230 | 3190 ft | 146 kts | 184° |
| 2026-04-30 12:16 | 55.80131 | 37.39126 | 3287 ft | 146 kts | 185° |
| 2026-04-30 12:16 | 55.79078 | 37.39013 | 3300 ft | 155 kts | 185° |
| 2026-04-30 12:16 | 55.77984 | 37.38898 | 3287 ft | 160 kts | 185° |
| 2026-04-30 12:17 | 55.75798 | 37.38670 | 3281 ft | 156 kts | 185° |
| 2026-04-30 12:17 | 55.74719 | 37.38557 | 3290 ft | 155 kts | 185° |
| 2026-04-30 12:17 | 55.73646 | 37.38441 | 3290 ft | 154 kts | 185° |
| 2026-04-30 12:18 | 55.72569 | 37.38323 | 3294 ft | 158 kts | 185° |
| 2026-04-30 12:18 | 55.71457 | 37.38206 | 3286 ft | 161 kts | 184° |
| 2026-04-30 12:18 | 55.70335 | 37.38087 | 3296 ft | 162 kts | 185° |
| 2026-04-30 12:18 | 55.69211 | 37.37965 | 3266 ft | 163 kts | 184° |
| 2026-04-30 12:19 | 55.68101 | 37.37852 | 3300 ft | 158 kts | 185° |
| 2026-04-30 12:19 | 55.67005 | 37.37734 | 3299 ft | 157 kts | 185° |
| 2026-04-30 12:19 | 55.65931 | 37.37647 | 3296 ft | 157 kts | 176° |
| 2026-04-30 12:19 | 55.64964 | 37.38476 | 3292 ft | 159 kts | 132° |
| 2026-04-30 12:20 | 55.64404 | 37.40125 | 3300 ft | 156 kts | 115° |
| 2026-04-30 12:20 | 55.63943 | 37.41848 | 3300 ft | 154 kts | 114° |
| 2026-04-30 12:20 | 55.63462 | 37.43526 | 3300 ft | 152 kts | 117° |
| 2026-04-30 12:20 | 55.62950 | 37.45163 | 3299 ft | 152 kts | 118° |
| 2026-04-30 12:21 | 55.62424 | 37.46798 | 3300 ft | 153 kts | 118° |
| 2026-04-30 12:21 | 55.61897 | 37.48431 | 3299 ft | 153 kts | 118° |
| 2026-04-30 12:21 | 55.61376 | 37.50045 | 3301 ft | 152 kts | 118° |
| 2026-04-30 12:21 | 55.60849 | 37.51670 | 3295 ft | 152 kts | 118° |
| 2026-04-30 12:22 | 55.60321 | 37.53301 | 3285 ft | 152 kts | 119° |
| 2026-04-30 12:22 | 55.59802 | 37.54909 | 3287 ft | 149 kts | 118° |
| 2026-04-30 12:22 | 55.59289 | 37.56497 | 3282 ft | 149 kts | 119° |
| 2026-04-30 12:22 | 55.58779 | 37.58072 | 3284 ft | 146 kts | 119° |
| 2026-04-30 12:23 | 55.58274 | 37.59615 | 3283 ft | 145 kts | 119° |
| 2026-04-30 12:23 | 55.57629 | 37.61008 | 3282 ft | 149 kts | 143° |
| 2026-04-30 12:23 | 55.56686 | 37.61649 | 3278 ft | 146 kts | 175° |
| 2026-04-30 12:23 | 55.55692 | 37.61518 | 3285 ft | 146 kts | 190° |
| 2026-04-30 12:24 | 55.54679 | 37.61243 | 3288 ft | 147 kts | 191° |
| 2026-04-30 12:24 | 55.53658 | 37.60955 | 3289 ft | 151 kts | 190° |
| 2026-04-30 12:24 | 55.52604 | 37.60661 | 3288 ft | 155 kts | 190° |
| 2026-04-30 12:24 | 55.51531 | 37.60366 | 3289 ft | 157 kts | 190° |
| 2026-04-30 12:25 | 55.50451 | 37.60072 | 3289 ft | 158 kts | 190° |
| 2026-04-30 12:25 | 55.49364 | 37.59774 | 3289 ft | 158 kts | 190° |
| 2026-04-30 12:25 | 55.48274 | 37.59478 | 3289 ft | 158 kts | 190° |
| 2026-04-30 12:25 | 55.47184 | 37.59180 | 3279 ft | 159 kts | 190° |
| 2026-04-30 12:26 | 55.46093 | 37.58881 | 3276 ft | 158 kts | 190° |
| 2026-04-30 12:26 | 55.45002 | 37.58584 | 3285 ft | 161 kts | 189° |
| 2026-04-30 12:26 | 55.43868 | 37.58276 | 3278 ft | 169 kts | 190° |
| 2026-04-30 12:26 | 55.42672 | 37.57945 | 3277 ft | 177 kts | 191° |
| 2026-04-30 12:27 | 55.41433 | 37.57610 | 3280 ft | 181 kts | 191° |
| 2026-04-30 12:27 | 55.40179 | 37.57270 | 3271 ft | 182 kts | 191° |
| 2026-04-30 12:27 | 55.38930 | 37.56927 | 3274 ft | 180 kts | 191° |
| 2026-04-30 12:27 | 55.37692 | 37.56594 | 3270 ft | 180 kts | 190° |
| 2026-04-30 12:28 | 55.36452 | 37.56264 | 3264 ft | 180 kts | 190° |
| 2026-04-30 12:28 | 55.35234 | 37.55937 | 3265 ft | 174 kts | 190° |
| 2026-04-30 12:28 | 55.34063 | 37.55616 | 3237 ft | 167 kts | 190° |
| 2026-04-30 12:28 | 55.32970 | 37.55318 | 3133 ft | 151 kts | 190° |
| 2026-04-30 12:29 | 55.31973 | 37.55048 | 3030 ft | 140 kts | 190° |
| 2026-04-30 12:29 | 55.31027 | 37.54793 | 2931 ft | 139 kts | 191° |
| 2026-04-30 12:29 | 55.30060 | 37.54533 | 2732 ft | 137 kts | 191° |
| 2026-04-30 12:29 | 55.29207 | 37.54303 | 2498 ft | 115 kts | 191° |
| 2026-04-30 12:30 | 55.28416 | 37.54348 | 2283 ft | 126 kts | 166° |
| 2026-04-30 12:30 | 55.27660 | 37.55306 | 2057 ft | 144 kts | 127° |
| 2026-04-30 12:30 | 55.27423 | 37.57018 | 1832 ft | 148 kts | 87° |
| 2026-04-30 12:30 | 55.27539 | 37.58738 | 1682 ft | 137 kts | 79° |
| 2026-04-30 12:31 | 55.27670 | 37.60348 | 1582 ft | 131 kts | 79° |
| 2026-04-30 12:31 | 55.27797 | 37.61911 | 1483 ft | 129 kts | 78° |
| 2026-04-30 12:31 | 55.27923 | 37.63453 | 1480 ft | 126 kts | 82° |
| 2026-04-30 12:31 | 55.28039 | 37.64931 | 1475 ft | 120 kts | 79° |
| 2026-04-30 12:32 | 55.28150 | 37.66368 | 1469 ft | 120 kts | 79° |
| 2026-04-30 12:32 | 55.28261 | 37.67833 | 1471 ft | 122 kts | 79° |
| 2026-04-30 12:32 | 55.28377 | 37.69321 | 1473 ft | 124 kts | 79° |
| 2026-04-30 12:32 | 55.28494 | 37.70828 | 1471 ft | 125 kts | 79° |
| 2026-04-30 12:33 | 55.28609 | 37.72344 | 1477 ft | 129 kts | 79° |
| 2026-04-30 12:33 | 55.28742 | 37.73985 | 1473 ft | 140 kts | 79° |
| 2026-04-30 12:33 | 55.28873 | 37.75694 | 1467 ft | 140 kts | 80° |
| 2026-04-30 12:33 | 55.28994 | 37.77359 | 1470 ft | 136 kts | 79° |
| 2026-04-30 12:34 | 55.29122 | 37.79009 | 1474 ft | 139 kts | 79° |
| 2026-04-30 12:34 | 55.29254 | 37.80707 | 1473 ft | 142 kts | 80° |
| 2026-04-30 12:34 | 55.29374 | 37.82350 | 1462 ft | 126 kts | 79° |
| 2026-04-30 12:34 | 55.29482 | 37.83789 | 1454 ft | 116 kts | 78° |
| 2026-04-30 12:35 | 55.29603 | 37.85264 | 1462 ft | 122 kts | 78° |
| 2026-04-30 12:35 | 55.29711 | 37.86693 | 1462 ft | 116 kts | 79° |
| 2026-04-30 12:35 | 55.29816 | 37.88112 | 1464 ft | 118 kts | 79° |
| 2026-04-30 12:35 | 55.29924 | 37.89558 | 1469 ft | 121 kts | 79° |
| 2026-04-30 12:36 | 55.30011 | 37.91001 | 1467 ft | 121 kts | 81° |
| 2026-04-30 12:36 | 55.30113 | 37.92468 | 1462 ft | 122 kts | 78° |
| 2026-04-30 12:36 | 55.30229 | 37.93916 | 1461 ft | 117 kts | 77° |
| 2026-04-30 12:36 | 55.30339 | 37.95309 | 1458 ft | 113 kts | 77° |
| 2026-04-30 12:37 | 55.30441 | 37.96668 | 1455 ft | 111 kts | 78° |
| 2026-04-30 12:37 | 55.30537 | 37.98015 | 1458 ft | 113 kts | 78° |
| 2026-04-30 12:37 | 55.30639 | 37.99401 | 1456 ft | 114 kts | 78° |
| 2026-04-30 12:37 | 55.30729 | 38.00729 | 1465 ft | 108 kts | 79° |
| 2026-04-30 12:38 | 55.30827 | 38.02083 | 1477 ft | 115 kts | 78° |
| 2026-04-30 12:38 | 55.30936 | 38.03506 | 1483 ft | 120 kts | 78° |
| 2026-04-30 12:38 | 55.31047 | 38.04980 | 1486 ft | 123 kts | 79° |
| 2026-04-30 12:38 | 55.31157 | 38.06489 | 1475 ft | 125 kts | 79° |
| 2026-04-30 12:39 | 55.31271 | 38.07994 | 1474 ft | 122 kts | 77° |
| 2026-04-30 12:39 | 55.31387 | 38.09421 | 1470 ft | 115 kts | 78° |
| 2026-04-30 12:39 | 55.31455 | 38.10340 | 1473 ft | 114 kts | 78° |
| 2026-04-30 12:39 | 55.31555 | 38.11717 | 1474 ft | 114 kts | 81° |
| 2026-04-30 12:40 | 55.31655 | 38.13108 | 1473 ft | 115 kts | 79° |
| 2026-04-30 12:40 | 55.31757 | 38.14503 | 1471 ft | 115 kts | 79° |
| 2026-04-30 12:40 | 55.31860 | 38.15901 | 1474 ft | 116 kts | 79° |
| 2026-04-30 12:40 | 55.31766 | 38.17292 | 1486 ft | 117 kts | 113° |
| 2026-04-30 12:41 | 55.31211 | 38.18379 | 1490 ft | 124 kts | 144° |
| 2026-04-30 12:41 | 55.30485 | 38.19248 | 1495 ft | 129 kts | 146° |
| 2026-04-30 12:41 | 55.29736 | 38.20137 | 1500 ft | 131 kts | 146° |
| 2026-04-30 12:41 | 55.28977 | 38.21041 | 1499 ft | 130 kts | 147° |
| 2026-04-30 12:42 | 55.28213 | 38.21961 | 1497 ft | 135 kts | 145° |
| 2026-04-30 12:42 | 55.27440 | 38.22889 | 1500 ft | 135 kts | 145° |
| 2026-04-30 12:42 | 55.26669 | 38.23820 | 1498 ft | 132 kts | 144° |
| 2026-04-30 12:42 | 55.25930 | 38.24729 | 1494 ft | 126 kts | 143° |
| 2026-04-30 12:43 | 55.25226 | 38.25581 | 1482 ft | 122 kts | 145° |
| 2026-04-30 12:43 | 55.24543 | 38.26392 | 1481 ft | 114 kts | 145° |
| 2026-04-30 12:43 | 55.23892 | 38.27167 | 1491 ft | 114 kts | 146° |
| 2026-04-30 12:43 | 55.23206 | 38.27962 | 1500 ft | 122 kts | 146° |
| 2026-04-30 12:44 | 55.22488 | 38.28814 | 1503 ft | 127 kts | 145° |
| 2026-04-30 12:44 | 55.21742 | 38.29708 | 1500 ft | 131 kts | 145° |
| 2026-04-30 12:44 | 55.20982 | 38.30620 | 1499 ft | 134 kts | 146° |
| 2026-04-30 12:44 | 55.20210 | 38.31542 | 1502 ft | 135 kts | 145° |
| 2026-04-30 12:45 | 55.19438 | 38.32472 | 1497 ft | 133 kts | 143° |
| 2026-04-30 12:45 | 55.18700 | 38.33384 | 1494 ft | 127 kts | 144° |
| 2026-04-30 12:45 | 55.17992 | 38.34237 | 1490 ft | 124 kts | 144° |
| 2026-04-30 12:45 | 55.17289 | 38.35073 | 1490 ft | 121 kts | 144° |
| 2026-04-30 12:46 | 55.16603 | 38.35889 | 1485 ft | 118 kts | 144° |
| 2026-04-30 12:46 | 55.15925 | 38.36693 | 1481 ft | 118 kts | 144° |
| 2026-04-30 12:46 | 55.15255 | 38.37493 | 1478 ft | 116 kts | 144° |
| 2026-04-30 12:46 | 55.14597 | 38.38274 | 1485 ft | 114 kts | 144° |
| 2026-04-30 12:47 | 55.13947 | 38.39047 | 1489 ft | 113 kts | 144° |
| 2026-04-30 12:47 | 55.13296 | 38.39819 | 1485 ft | 112 kts | 144° |
| 2026-04-30 12:47 | 55.12696 | 38.40678 | 1489 ft | 112 kts | 124° |
| 2026-04-30 12:47 | 55.12472 | 38.41941 | 1503 ft | 110 kts | 85° |
| 2026-04-30 12:48 | 55.12716 | 38.43202 | 1502 ft | 113 kts | 59° |
| 2026-04-30 12:48 | 55.13107 | 38.44421 | 1493 ft | 118 kts | 58° |
| 2026-04-30 12:48 | 55.13520 | 38.45681 | 1497 ft | 122 kts | 57° |
| 2026-04-30 12:48 | 55.13942 | 38.46984 | 1499 ft | 124 kts | 58° |
| 2026-04-30 12:49 | 55.14367 | 38.48305 | 1501 ft | 125 kts | 58° |
| 2026-04-30 12:49 | 55.14797 | 38.49638 | 1450 ft | 126 kts | 57° |
| 2026-04-30 12:49 | 55.15234 | 38.50946 | 1320 ft | 123 kts | 57° |
| 2026-04-30 12:49 | 55.15649 | 38.52221 | 1195 ft | 119 kts | 58° |
| 2026-04-30 12:50 | 55.16054 | 38.53486 | 1071 ft | 118 kts | 58° |
| 2026-04-30 12:50 | 55.16452 | 38.54756 | 995 ft | 119 kts | 58° |
| 2026-04-30 12:50 | 55.16846 | 38.56004 | 994 ft | 115 kts | 58° |
| 2026-04-30 12:50 | 55.17228 | 38.57206 | 993 ft | 112 kts | 58° |
| 2026-04-30 12:51 | 55.17604 | 38.58388 | 994 ft | 110 kts | 58° |
| 2026-04-30 12:51 | 55.17979 | 38.59565 | 995 ft | 111 kts | 58° |
| 2026-04-30 12:51 | 55.18353 | 38.60740 | 995 ft | 109 kts | 58° |
| 2026-04-30 12:51 | 55.18749 | 38.61874 | 966 ft | 110 kts | 54° |
| 2026-04-30 12:52 | 55.19164 | 38.62972 | 904 ft | 108 kts | 58° |
| 2026-04-30 12:52 | 55.19389 | 38.64131 | 836 ft | 102 kts | 82° |
| 2026-04-30 12:52 | 55.19663 | 38.65226 | 730 ft | 98 kts | 54° |
| 2026-04-30 12:52 | 55.20021 | 38.66208 | 589 ft | 93 kts | 57° |
| 2026-04-30 12:53 | 55.20366 | 38.67129 | 473 ft | 88 kts | 56° |
| 2026-04-30 12:53 | 55.20658 | 38.67950 | 503 ft | 72 kts | 65° |
| 2026-04-30 12:53 | 55.20920 | 38.68748 | 543 ft | 80 kts | 62° |
| 2026-04-30 12:53 | 55.21199 | 38.69645 | 639 ft | 89 kts | 72° |
| 2026-04-30 12:54 | 55.21378 | 38.70733 | 703 ft | 94 kts | 87° |
| 2026-04-30 12:54 | 55.21082 | 38.71703 | 825 ft | 97 kts | 156° |
| 2026-04-30 12:54 | 55.20410 | 38.71714 | 869 ft | 103 kts | 210° |
| 2026-04-30 12:54 | 55.19888 | 38.70865 | 911 ft | 108 kts | 236° |
| 2026-04-30 12:55 | 55.19471 | 38.69754 | 962 ft | 109 kts | 244° |
| 2026-04-30 12:55 | 55.19162 | 38.68529 | 975 ft | 110 kts | 258° |
| 2026-04-30 12:55 | 55.18928 | 38.67239 | 994 ft | 111 kts | 246° |
| 2026-04-30 12:55 | 55.18506 | 38.66086 | 1000 ft | 111 kts | 240° |
| 2026-04-30 12:56 | 55.18499 | 38.64882 | 948 ft | 105 kts | 313° |
| 2026-04-30 12:56 | 55.19129 | 38.64669 | 879 ft | 96 kts | 21° |
| 2026-04-30 12:56 | 55.19672 | 38.65304 | 705 ft | 93 kts | 49° |
| 2026-04-30 12:56 | 55.20035 | 38.66215 | 562 ft | 89 kts | 57° |
| 2026-04-30 12:57 | 55.20360 | 38.67096 | 472 ft | 83 kts | 56° |
| 2026-04-30 12:57 | 55.20641 | 38.67893 | 461 ft | 69 kts | 64° |
| 2026-04-30 12:57 | 55.20859 | 38.68680 | 471 ft | 81 kts | 53° |
| 2026-04-30 12:57 | 55.21139 | 38.69566 | 598 ft | 83 kts | 66° |
| 2026-04-30 12:58 | 55.21372 | 38.70516 | 707 ft | 88 kts | 72° |
| 2026-04-30 12:58 | 55.21230 | 38.71492 | 800 ft | 95 kts | 140° |
| 2026-04-30 12:58 | 55.20591 | 38.71942 | 817 ft | 106 kts | 182° |
| 2026-04-30 12:58 | 55.19933 | 38.71496 | 882 ft | 105 kts | 226° |
| 2026-04-30 12:59 | 55.19523 | 38.70435 | 925 ft | 108 kts | 247° |
| 2026-04-30 12:59 | 55.19272 | 38.69195 | 985 ft | 108 kts | 258° |
| 2026-04-30 12:59 | 55.19059 | 38.67901 | 988 ft | 113 kts | 252° |
| 2026-04-30 12:59 | 55.18711 | 38.66692 | 1038 ft | 114 kts | 245° |
| 2026-04-30 13:00 | 55.18438 | 38.65399 | 1035 ft | 113 kts | 275° |
| 2026-04-30 13:00 | 55.18895 | 38.64435 | 905 ft | 106 kts | 347° |
| 2026-04-30 13:00 | 55.19534 | 38.64796 | 753 ft | 102 kts | 54° |
| 2026-04-30 13:00 | 55.19887 | 38.65826 | 655 ft | 95 kts | 53° |
| 2026-04-30 13:01 | 55.20244 | 38.66783 | 521 ft | 92 kts | 57° |
| 2026-04-30 13:01 | 55.20571 | 38.67657 | 428 ft | 74 kts | 59° |
| 2026-04-30 13:01 | 55.20691 | 38.68001 | 427 ft | 0 kts | 71° |
| 2026-04-30 13:01 | 55.20696 | 38.68033 | 426 ft | 5 kts | 77° |
| 2026-04-30 13:02 | 55.20698 | 38.68044 | 426 ft | 7 kts | 76° |
| 2026-04-30 13:02 | 55.20792 | 38.68291 | 424 ft | 27 kts | 59° |
| 2026-04-30 13:02 | 55.20806 | 38.68314 | 424 ft | 8 kts | 277° |
| 2026-04-30 13:02 | 55.20696 | 38.68011 | 427 ft | 62 kts | 236° |
| 2026-04-30 13:03 | 55.20406 | 38.67259 | 663 ft | 73 kts | 235° |
| 2026-04-30 13:03 | 55.20036 | 38.66404 | 804 ft | 105 kts | 232° |
| 2026-04-30 13:03 | 55.19529 | 38.65428 | 1097 ft | 115 kts | 224° |
| 2026-04-30 13:03 | 55.18891 | 38.64520 | 1421 ft | 107 kts | 224° |
| 2026-04-30 13:04 | 55.18806 | 38.63444 | 1294 ft | 99 kts | 315° |
| 2026-04-30 13:04 | 55.19396 | 38.63668 | 1079 ft | 106 kts | 63° |
| 2026-04-30 13:04 | 55.19679 | 38.64894 | 870 ft | 109 kts | 62° |
| 2026-04-30 13:04 | 55.20025 | 38.66084 | 652 ft | 112 kts | 60° |
| 2026-04-30 13:05 | 55.20401 | 38.67207 | 463 ft | 99 kts | 56° |
| 2026-04-30 13:05 | 55.20671 | 38.67943 | 428 ft | 23 kts | 59° |
| 2026-04-30 13:05 | 55.20683 | 38.67976 | 427 ft | 9 kts | 53° |
| 2026-04-30 13:06 | 55.20482 | 38.67446 | 433 ft | 82 kts | 238° |
| 2026-04-30 13:06 | 55.20077 | 38.66645 | 638 ft | 104 kts | 195° |
| 2026-04-30 13:06 | 55.19333 | 38.66340 | 789 ft | 109 kts | 217° |
| 2026-04-30 13:06 | 55.19414 | 38.65387 | 738 ft | 96 kts | 346° |
| 2026-04-30 13:07 | 55.19924 | 38.65864 | 636 ft | 96 kts | 65° |
| 2026-04-30 13:07 | 55.20266 | 38.66846 | 473 ft | 95 kts | 54° |
| 2026-04-30 13:07 | 55.20584 | 38.67712 | 423 ft | 54 kts | 58° |
| 2026-04-30 13:07 | 55.20821 | 38.68317 | 425 ft | 84 kts | 51° |